createdAt,value
2024-05-09T00:00:39.313Z,90.44
2024-05-09T00:01:35.267Z,90.44
2024-05-09T00:02:35.187Z,90.34
2024-05-09T00:03:35.250Z,90.34
2024-05-09T00:04:35.199Z,90.34
2024-05-09T00:05:35.427Z,90.23
2024-05-09T00:06:35.087Z,89.92
2024-05-09T00:07:35.091Z,90.07
2024-05-09T00:08:35.152Z,90.28
2024-05-09T00:09:35.077Z,90.28
2024-05-09T00:10:37.823Z,89.97
2024-05-09T00:11:35.223Z,90.07
2024-05-09T00:12:35.018Z,90.28
2024-05-09T00:13:34.995Z,90.28
2024-05-09T00:14:35.016Z,90.28
2024-05-09T00:15:35.761Z,90.37
2024-05-09T00:16:35.021Z,90.58
2024-05-09T00:17:35.101Z,90.79
2024-05-09T00:18:35.035Z,90.79
2024-05-09T00:19:35.024Z,90.89
2024-05-09T00:20:39.043Z,90.79
2024-05-09T00:21:34.912Z,90.69
2024-05-09T00:22:34.887Z,90.79
2024-05-09T00:23:34.941Z,90.79
2024-05-09T00:24:34.849Z,90.89
2024-05-09T00:25:35.486Z,90.89
2024-05-09T00:26:34.949Z,90.79
2024-05-09T00:27:34.830Z,90.79
2024-05-09T00:28:34.801Z,90.69
2024-05-09T00:29:34.819Z,90.79
2024-05-09T00:30:36.729Z,90.89
2024-05-09T00:31:34.760Z,90.99
2024-05-09T00:32:34.902Z,90.89
2024-05-09T00:33:34.915Z,90.58
2024-05-09T00:34:34.752Z,90.58
2024-05-09T00:35:34.787Z,90.79
2024-05-09T00:36:34.691Z,90.89
2024-05-09T00:37:34.692Z,91.09
2024-05-09T00:38:34.734Z,91.09
2024-05-09T00:39:34.654Z,91.09
2024-05-09T00:40:39.452Z,91.09
2024-05-09T00:41:34.738Z,90.99
2024-05-09T00:42:34.645Z,91.09
2024-05-09T00:43:34.620Z,91.14
2024-05-09T00:44:34.614Z,91.24
2024-05-09T00:45:34.603Z,91.44
2024-05-09T00:46:34.560Z,91.71
2024-05-09T00:47:34.854Z,91.71
2024-05-09T00:48:34.750Z,91.71
2024-05-09T00:49:34.783Z,91.71
2024-05-09T00:50:36.893Z,91.61
2024-05-09T00:51:34.492Z,91.40
2024-05-09T00:52:34.511Z,91.20
2024-05-09T00:53:34.688Z,90.99
2024-05-09T00:54:34.454Z,90.89
2024-05-09T00:55:34.443Z,90.58
2024-05-09T00:56:34.476Z,90.52
2024-05-09T00:57:34.417Z,90.52
2024-05-09T00:58:34.409Z,90.62
2024-05-09T00:59:34.416Z,90.73
2024-05-09T01:00:39.115Z,90.73
2024-05-09T01:01:34.494Z,90.67
2024-05-09T01:02:34.492Z,90.87
2024-05-09T01:03:34.501Z,91.08
2024-05-09T01:04:34.362Z,90.97
2024-05-09T01:05:34.801Z,90.97
2024-05-09T01:06:34.304Z,91.18
2024-05-09T01:07:34.323Z,91.08
2024-05-09T01:08:34.336Z,91.08
2024-05-09T01:09:34.268Z,90.97
2024-05-09T01:10:35.591Z,90.97
2024-05-09T01:11:34.357Z,90.97
2024-05-09T01:12:34.275Z,90.87
2024-05-09T01:13:34.223Z,90.56
2024-05-09T01:14:34.257Z,90.36
2024-05-09T01:15:34.388Z,90.16
2024-05-09T01:16:34.159Z,90.26
2024-05-09T01:17:34.397Z,90.16
2024-05-09T01:18:34.258Z,90.20
2024-05-09T01:19:34.141Z,90.30
2024-05-09T01:20:41.148Z,90.46
2024-05-09T01:21:34.115Z,90.56
2024-05-09T01:22:34.090Z,90.67
2024-05-09T01:23:34.202Z,90.81
2024-05-09T01:24:34.068Z,90.81
2024-05-09T01:25:34.057Z,90.91
2024-05-09T01:26:34.116Z,91.02
2024-05-09T01:27:34.015Z,91.02
2024-05-09T01:28:34.003Z,91.12
2024-05-09T01:29:34.048Z,91.18
2024-05-09T01:30:36.518Z,91.18
2024-05-09T01:31:33.998Z,91.02
2024-05-09T01:32:34.087Z,90.81
2024-05-09T01:33:34.056Z,90.61
2024-05-09T01:34:33.943Z,90.61
2024-05-09T01:35:33.997Z,90.61
2024-05-09T01:36:33.934Z,90.61
2024-05-09T01:37:33.893Z,90.61
2024-05-09T01:38:33.949Z,90.50
2024-05-09T01:39:33.863Z,90.20
2024-05-09T01:40:38.379Z,90.09
2024-05-09T01:41:33.861Z,90.24
2024-05-09T01:42:33.873Z,90.03
2024-05-09T01:43:33.810Z,90.03
2024-05-09T01:44:33.862Z,89.93
2024-05-09T01:45:33.822Z,90.24
2024-05-09T01:46:33.825Z,90.55
2024-05-09T01:47:33.902Z,90.34
2024-05-09T01:48:33.947Z,90.14
2024-05-09T01:49:33.869Z,89.76
2024-05-09T01:50:38.887Z,89.97
2024-05-09T01:51:33.742Z,90.28
2024-05-09T01:52:33.721Z,90.38
2024-05-09T01:53:33.774Z,90.59
2024-05-09T01:54:33.679Z,90.69
2024-05-09T01:55:33.669Z,90.80
2024-05-09T01:56:33.716Z,90.69
2024-05-09T01:57:33.641Z,90.48
2024-05-09T01:58:33.649Z,90.18
2024-05-09T01:59:33.660Z,89.87
2024-05-09T02:00:39.150Z,89.87
2024-05-09T02:01:55.472Z,90.18
2024-05-09T02:02:33.674Z,90.38
2024-05-09T02:03:33.721Z,90.69
2024-05-09T02:04:33.639Z,90.89
2024-05-09T02:05:33.594Z,91.10
2024-05-09T02:06:33.505Z,91.20
2024-05-09T02:07:33.511Z,91.31
2024-05-09T02:08:33.614Z,91.31
2024-05-09T02:09:33.504Z,91.31
2024-05-09T02:10:33.785Z,91.41
2024-05-09T02:11:33.550Z,91.41
2024-05-09T02:12:33.531Z,91.31
2024-05-09T02:13:33.440Z,91.20
2024-05-09T02:14:33.446Z,91.00
2024-05-09T02:15:33.394Z,90.89
2024-05-09T02:16:33.373Z,90.89
2024-05-09T02:17:33.525Z,90.80
2024-05-09T02:18:33.403Z,90.69
2024-05-09T02:19:33.505Z,90.69
2024-05-09T02:20:36.499Z,90.53
2024-05-09T02:21:33.310Z,90.63
2024-05-09T02:22:33.316Z,90.73
2024-05-09T02:23:33.398Z,90.94
2024-05-09T02:24:33.311Z,91.04
2024-05-09T02:25:33.297Z,91.04
2024-05-09T02:26:33.296Z,90.94
2024-05-09T02:27:33.233Z,90.89
2024-05-09T02:28:33.218Z,90.69
2024-05-09T02:29:33.317Z,90.53
2024-05-09T02:30:39.350Z,90.69
2024-05-09T02:31:33.176Z,90.80
2024-05-09T02:32:33.326Z,90.80
2024-05-09T02:33:33.513Z,90.59
2024-05-09T02:34:33.200Z,90.38
2024-05-09T02:35:33.267Z,90.38
2024-05-09T02:36:33.143Z,90.42
2024-05-09T02:37:33.103Z,90.53
2024-05-09T02:38:33.299Z,90.73
2024-05-09T02:39:33.083Z,90.94
2024-05-09T02:40:37.244Z,90.94
2024-05-09T02:41:33.145Z,91.04
2024-05-09T02:42:33.038Z,90.94
2024-05-09T02:43:33.052Z,90.63
2024-05-09T02:44:33.071Z,90.53
2024-05-09T02:45:33.201Z,90.42
2024-05-09T02:46:32.978Z,90.32
2024-05-09T02:47:33.111Z,90.22
2024-05-09T02:48:33.190Z,90.22
2024-05-09T02:49:33.057Z,90.32
2024-05-09T02:50:38.039Z,90.53
2024-05-09T02:51:32.913Z,90.53
2024-05-09T02:52:32.940Z,90.53
2024-05-09T02:53:32.989Z,90.42
2024-05-09T02:54:32.881Z,90.12
2024-05-09T02:55:33.087Z,90.22
2024-05-09T02:56:32.876Z,90.22
2024-05-09T02:57:32.835Z,90.12
2024-05-09T02:58:32.842Z,90.06
2024-05-09T02:59:32.870Z,89.85
2024-05-09T03:00:38.855Z,89.85
2024-05-09T03:01:32.836Z,90.06
2024-05-09T03:02:32.789Z,90.16
2024-05-09T03:03:33.102Z,89.95
2024-05-09T03:04:32.859Z,89.85
2024-05-09T03:05:32.898Z,90.00
2024-05-09T03:06:32.725Z,90.09
2024-05-09T03:07:32.704Z,90.09
2024-05-09T03:08:32.788Z,90.20
2024-05-09T03:09:32.703Z,90.30
2024-05-09T03:10:36.298Z,90.41
2024-05-09T03:11:32.718Z,90.51
2024-05-09T03:12:33.259Z,90.61
2024-05-09T03:13:32.632Z,90.72
2024-05-09T03:14:32.667Z,90.72
2024-05-09T03:15:32.620Z,90.61
2024-05-09T03:16:32.585Z,90.61
2024-05-09T03:17:32.806Z,90.20
2024-05-09T03:18:32.620Z,89.89
2024-05-09T03:19:32.603Z,89.79
2024-05-09T03:20:35.069Z,89.79
2024-05-09T03:21:32.532Z,90.09
2024-05-09T03:22:32.515Z,90.20
2024-05-09T03:23:32.590Z,90.00
2024-05-09T03:24:32.481Z,89.79
2024-05-09T03:25:32.482Z,89.89
2024-05-09T03:26:32.590Z,90.00
2024-05-09T03:27:32.462Z,89.79
2024-05-09T03:28:32.423Z,89.58
2024-05-09T03:29:32.465Z,89.62
2024-05-09T03:30:40.006Z,89.62
2024-05-09T03:31:32.386Z,89.73
2024-05-09T03:32:32.501Z,89.83
2024-05-09T03:33:32.573Z,89.94
2024-05-09T03:34:32.373Z,89.83
2024-05-09T03:35:32.409Z,89.73
2024-05-09T03:36:32.335Z,89.73
2024-05-09T03:37:32.309Z,89.83
2024-05-09T03:38:32.468Z,89.83
2024-05-09T03:39:32.298Z,90.03
2024-05-09T03:40:32.318Z,90.28
2024-05-09T03:41:32.492Z,90.45
2024-05-09T03:42:32.250Z,90.24
2024-05-09T03:43:32.240Z,90.03
2024-05-09T03:44:32.252Z,90.14
2024-05-09T03:45:32.212Z,90.14
2024-05-09T03:46:32.207Z,90.34
2024-05-09T03:47:32.280Z,90.34
2024-05-09T03:48:32.261Z,90.24
2024-05-09T03:49:32.212Z,90.24
2024-05-09T03:50:35.577Z,90.14
2024-05-09T03:51:32.214Z,90.14
2024-05-09T03:52:32.143Z,90.24
2024-05-09T03:53:32.251Z,90.34
2024-05-09T03:54:32.103Z,90.45
2024-05-09T03:55:32.233Z,90.30
2024-05-09T03:56:32.166Z,90.30
2024-05-09T03:57:32.094Z,90.20
2024-05-09T03:58:32.037Z,90.00
2024-05-09T03:59:32.138Z,89.89
2024-05-09T04:00:38.015Z,89.89
2024-05-09T04:01:32.199Z,90.03
2024-05-09T04:02:32.107Z,90.24
2024-05-09T04:03:32.083Z,90.45
2024-05-09T04:04:32.209Z,90.55
2024-05-09T04:05:32.048Z,90.75
2024-05-09T04:06:31.932Z,90.75
2024-05-09T04:07:31.951Z,90.75
2024-05-09T04:08:31.983Z,90.86
2024-05-09T04:09:31.914Z,90.96
2024-05-09T04:10:34.202Z,90.96
2024-05-09T04:11:31.937Z,91.06
2024-05-09T04:12:31.882Z,91.06
2024-05-09T04:13:31.856Z,90.96
2024-05-09T04:14:31.920Z,91.06
2024-05-09T04:15:32.394Z,91.27
2024-05-09T04:16:31.802Z,91.38
2024-05-09T04:17:32.052Z,91.58
2024-05-09T04:18:31.831Z,91.58
2024-05-09T04:19:31.918Z,91.44
2024-05-09T04:20:38.335Z,91.33
2024-05-09T04:21:31.739Z,91.23
2024-05-09T04:22:31.728Z,91.13
2024-05-09T04:23:31.758Z,91.02
2024-05-09T04:24:31.733Z,90.92
2024-05-09T04:25:31.752Z,90.81
2024-05-09T04:26:31.776Z,90.81
2024-05-09T04:27:31.664Z,90.81
2024-05-09T04:28:31.659Z,90.81
2024-05-09T04:29:31.668Z,90.81
2024-05-09T04:30:37.996Z,91.02
2024-05-09T04:31:31.623Z,91.13
2024-05-09T04:32:31.777Z,90.92
2024-05-09T04:33:31.762Z,90.72
2024-05-09T04:34:31.687Z,90.72
2024-05-09T04:35:31.687Z,90.81
2024-05-09T04:36:31.569Z,91.13
2024-05-09T04:37:31.557Z,91.53
2024-05-09T04:38:31.680Z,91.85
2024-05-09T04:39:31.503Z,92.05
2024-05-09T04:40:35.064Z,92.25
2024-05-09T04:41:31.550Z,92.36
2024-05-09T04:42:31.583Z,92.36
2024-05-09T04:43:31.467Z,92.52
2024-05-09T04:44:31.504Z,92.73
2024-05-09T04:45:31.593Z,92.73
2024-05-09T04:46:31.413Z,92.73
2024-05-09T04:47:31.532Z,92.83
2024-05-09T04:48:31.490Z,92.93
2024-05-09T04:49:31.469Z,93.04
2024-05-09T04:50:36.907Z,93.14
2024-05-09T04:51:31.351Z,93.35
2024-05-09T04:52:31.340Z,93.44
2024-05-09T04:53:31.368Z,93.44
2024-05-09T04:54:36.233Z,93.44
2024-05-09T04:55:31.313Z,93.51
2024-05-09T04:56:31.367Z,93.51
2024-05-09T04:57:31.400Z,93.61
2024-05-09T04:58:31.254Z,93.51
2024-05-09T04:59:31.437Z,93.40
2024-05-09T05:00:36.511Z,93.30
2024-05-09T05:01:31.296Z,93.16
2024-05-09T05:02:31.446Z,93.20
2024-05-09T05:03:31.437Z,93.26
2024-05-09T05:04:31.343Z,93.16
2024-05-09T05:05:31.277Z,93.16
2024-05-09T05:06:31.161Z,93.16
2024-05-09T05:07:31.127Z,93.16
2024-05-09T05:08:31.165Z,93.16
2024-05-09T05:09:31.114Z,93.16
2024-05-09T05:10:36.029Z,93.40
2024-05-09T05:11:31.190Z,93.51
2024-05-09T05:12:31.229Z,93.71
2024-05-09T05:13:31.087Z,94.02
2024-05-09T05:14:31.140Z,94.23
2024-05-09T05:15:31.083Z,94.43
2024-05-09T05:16:31.070Z,94.59
2024-05-09T05:17:31.221Z,94.59
2024-05-09T05:18:31.024Z,94.49
2024-05-09T05:19:31.261Z,94.39
2024-05-09T05:20:33.739Z,94.18
2024-05-09T05:21:30.980Z,94.29
2024-05-09T05:22:30.965Z,94.29
2024-05-09T05:23:30.967Z,94.39
2024-05-09T05:24:30.916Z,94.39
2024-05-09T05:25:30.903Z,94.49
2024-05-09T05:26:30.947Z,94.55
2024-05-09T05:27:30.883Z,94.55
2024-05-09T05:28:30.884Z,94.34
2024-05-09T05:29:30.905Z,94.14
2024-05-09T05:30:34.569Z,94.04
2024-05-09T05:31:30.856Z,93.93
2024-05-09T05:32:31.022Z,93.93
2024-05-09T05:33:31.140Z,93.73
2024-05-09T05:34:30.791Z,93.63
2024-05-09T05:35:30.874Z,93.73
2024-05-09T05:36:30.811Z,93.93
2024-05-09T05:37:30.738Z,93.93
2024-05-09T05:38:30.754Z,93.93
2024-05-09T05:39:30.758Z,93.83
2024-05-09T05:40:36.335Z,93.73
2024-05-09T05:41:30.778Z,93.63
2024-05-09T05:42:30.737Z,93.63
2024-05-09T05:43:30.667Z,93.63
2024-05-09T05:44:30.731Z,93.63
2024-05-09T05:45:30.632Z,93.63
2024-05-09T05:46:30.624Z,93.79
2024-05-09T05:47:30.716Z,93.89
2024-05-09T05:48:30.698Z,93.89
2024-05-09T05:49:30.663Z,93.89
2024-05-09T05:50:35.857Z,93.89
2024-05-09T05:51:30.563Z,94.10
2024-05-09T05:52:30.539Z,94.10
2024-05-09T05:53:30.632Z,94.20
2024-05-09T05:54:30.543Z,94.20
2024-05-09T05:55:30.497Z,94.10
2024-05-09T05:56:30.596Z,93.99
2024-05-09T05:57:30.487Z,93.99
2024-05-09T05:58:30.468Z,93.79
2024-05-09T05:59:30.537Z,93.79
2024-05-09T06:00:37.739Z,93.89
2024-05-09T06:01:30.483Z,93.99
2024-05-09T06:02:30.548Z,94.10
2024-05-09T06:03:30.562Z,94.10
2024-05-09T06:04:30.440Z,94.05
2024-05-09T06:05:30.522Z,94.05
2024-05-09T06:06:30.414Z,94.05
2024-05-09T06:07:30.349Z,93.95
2024-05-09T06:08:30.702Z,93.95
2024-05-09T06:09:30.331Z,93.85
2024-05-09T06:10:37.705Z,93.95
2024-05-09T06:11:30.362Z,93.95
2024-05-09T06:12:30.330Z,93.74
2024-05-09T06:13:30.286Z,93.64
2024-05-09T06:14:30.376Z,93.54
2024-05-09T06:15:30.257Z,93.64
2024-05-09T06:16:30.282Z,93.64
2024-05-09T06:17:30.342Z,93.74
2024-05-09T06:18:30.557Z,93.64
2024-05-09T06:19:30.366Z,93.64
2024-05-09T06:20:35.868Z,93.54
2024-05-09T06:21:30.227Z,93.44
2024-05-09T06:22:30.152Z,93.44
2024-05-09T06:23:30.272Z,93.64
2024-05-09T06:24:30.114Z,93.74
2024-05-09T06:25:30.195Z,93.74
2024-05-09T06:26:30.262Z,93.74
2024-05-09T06:27:30.074Z,93.54
2024-05-09T06:28:30.073Z,93.33
2024-05-09T06:29:30.342Z,93.02
2024-05-09T06:30:37.581Z,92.93
2024-05-09T06:31:30.042Z,93.02
2024-05-09T06:32:30.193Z,93.23
2024-05-09T06:33:30.296Z,93.33
2024-05-09T06:34:30.157Z,93.44
2024-05-09T06:35:30.155Z,93.39
2024-05-09T06:36:29.963Z,93.39
2024-05-09T06:37:29.955Z,93.49
2024-05-09T06:38:30.026Z,93.39
2024-05-09T06:39:29.929Z,93.19
2024-05-09T06:40:36.871Z,92.88
2024-05-09T06:41:30.005Z,92.88
2024-05-09T06:42:29.914Z,92.68
2024-05-09T06:43:29.868Z,92.68
2024-05-09T06:44:29.945Z,92.53
2024-05-09T06:45:29.853Z,92.36
2024-05-09T06:46:29.841Z,92.32
2024-05-09T06:47:29.919Z,92.43
2024-05-09T06:48:29.963Z,92.43
2024-05-09T06:49:30.090Z,92.22
2024-05-09T06:50:36.839Z,92.02
2024-05-09T06:51:29.767Z,92.12
2024-05-09T06:52:29.801Z,92.12
2024-05-09T06:53:29.786Z,92.22
2024-05-09T06:54:29.744Z,91.91
2024-05-09T06:55:29.723Z,92.02
2024-05-09T06:56:29.843Z,92.22
2024-05-09T06:57:29.692Z,92.53
2024-05-09T06:58:29.676Z,92.74
2024-05-09T06:59:29.852Z,92.74
2024-05-09T07:00:35.961Z,92.69
2024-05-09T07:01:29.656Z,92.69
2024-05-09T07:02:29.677Z,92.38
2024-05-09T07:03:29.773Z,92.08
2024-05-09T07:04:29.695Z,91.87
2024-05-09T07:05:29.722Z,91.77
2024-05-09T07:06:29.563Z,91.87
2024-05-09T07:07:29.546Z,91.87
2024-05-09T07:08:29.635Z,92.08
2024-05-09T07:09:29.521Z,92.38
2024-05-09T07:10:34.782Z,92.49
2024-05-09T07:11:29.611Z,92.59
2024-05-09T07:12:29.623Z,92.55
2024-05-09T07:13:29.476Z,92.55
2024-05-09T07:14:29.792Z,92.14
2024-05-09T07:15:29.451Z,91.83
2024-05-09T07:16:29.460Z,91.73
2024-05-09T07:17:29.783Z,91.78
2024-05-09T07:18:29.746Z,91.89
2024-05-09T07:19:29.528Z,91.78
2024-05-09T07:20:34.549Z,91.58
2024-05-09T07:21:29.374Z,91.38
2024-05-09T07:22:29.362Z,91.38
2024-05-09T07:23:29.390Z,91.48
2024-05-09T07:24:29.340Z,91.69
2024-05-09T07:25:29.542Z,91.78
2024-05-09T07:26:29.371Z,91.99
2024-05-09T07:27:29.290Z,91.95
2024-05-09T07:28:29.332Z,91.85
2024-05-09T07:29:29.313Z,91.74
2024-05-09T07:30:33.502Z,91.54
2024-05-09T07:31:29.242Z,91.44
2024-05-09T07:32:29.343Z,91.33
2024-05-09T07:33:29.399Z,91.44
2024-05-09T07:34:29.312Z,91.03
2024-05-09T07:35:29.470Z,90.82
2024-05-09T07:36:29.173Z,90.92
2024-05-09T07:37:29.152Z,91.03
2024-05-09T07:38:29.284Z,91.13
2024-05-09T07:39:29.135Z,90.88
2024-05-09T07:40:35.608Z,90.58
2024-05-09T07:41:29.199Z,90.58
2024-05-09T07:42:29.094Z,90.78
2024-05-09T07:43:29.122Z,90.68
2024-05-09T07:44:29.205Z,90.78
2024-05-09T07:45:45.389Z,90.99
2024-05-09T07:47:36.870Z,90.68
2024-05-09T07:50:53.200Z,90.47
2024-05-09T07:53:32.528Z,90.37
2024-05-09T07:53:49.450Z,90.78
2024-05-09T07:54:00.448Z,90.74
2024-05-09T07:54:56.090Z,90.74
2024-05-09T07:55:56.629Z,90.74
2024-05-09T07:56:56.062Z,90.74
2024-05-09T07:57:55.907Z,90.43
2024-05-09T07:58:56.384Z,90.49
2024-05-09T07:59:55.846Z,90.70
2024-05-09T08:00:55.991Z,90.39
2024-05-09T08:01:55.912Z,89.94
2024-05-09T08:02:55.824Z,89.73
2024-05-09T08:03:56.034Z,89.53
2024-05-09T08:04:55.908Z,89.32
2024-05-09T08:05:55.783Z,89.08
2024-05-09T08:06:55.803Z,88.88
2024-05-09T08:07:55.756Z,88.88
2024-05-09T08:08:56.062Z,88.88
2024-05-09T08:09:55.695Z,88.84
2024-05-09T08:10:55.771Z,88.84
2024-05-09T08:11:55.717Z,88.63
2024-05-09T08:12:55.719Z,88.43
2024-05-09T08:13:55.633Z,88.43
2024-05-09T08:14:55.688Z,88.49
2024-05-09T08:15:55.661Z,88.69
2024-05-09T08:16:55.660Z,88.59
2024-05-09T08:17:55.783Z,88.45
2024-05-09T08:18:55.634Z,88.24
2024-05-09T08:19:55.567Z,87.84
2024-05-09T08:20:55.616Z,87.43
2024-05-09T08:21:55.611Z,87.02
2024-05-09T08:22:55.518Z,86.88
2024-05-09T08:23:55.504Z,86.47
2024-05-09T08:24:55.559Z,86.16
2024-05-09T08:25:55.506Z,85.86
2024-05-09T08:26:55.488Z,85.66
2024-05-09T08:27:55.533Z,85.25
2024-05-09T08:28:55.436Z,85.00
2024-05-09T08:29:55.490Z,84.80
2024-05-09T08:30:55.528Z,84.70
2024-05-09T08:31:55.478Z,84.59
2024-05-09T08:32:55.417Z,84.59
2024-05-09T08:33:55.498Z,84.45
2024-05-09T08:34:55.379Z,83.54
2024-05-09T08:35:55.341Z,83.13
2024-05-09T08:36:57.528Z,83.44
2024-05-09T08:37:55.385Z,83.64
2024-05-09T08:38:55.307Z,83.44
2024-05-09T08:39:55.358Z,83.09
2024-05-09T08:40:55.319Z,83.09
2024-05-09T08:41:55.254Z,83.20
2024-05-09T08:42:55.295Z,83.29
2024-05-09T08:43:55.331Z,83.09
2024-05-09T08:44:55.229Z,82.34
2024-05-09T08:45:55.318Z,82.04
2024-05-09T08:46:55.195Z,82.65
2024-05-09T08:47:55.329Z,82.65
2024-05-09T08:48:55.396Z,81.79
2024-05-09T08:49:55.277Z,80.88
2024-05-09T08:50:55.188Z,80.68
2024-05-09T08:51:55.170Z,80.47
2024-05-09T08:52:55.132Z,80.68
2024-05-09T08:53:55.108Z,81.09
2024-05-09T08:54:55.173Z,80.03
2024-05-09T08:55:55.084Z,79.63
2024-05-09T08:56:55.071Z,79.72
2024-05-09T08:57:55.158Z,79.83
2024-05-09T08:58:55.051Z,79.93
2024-05-09T08:59:55.052Z,79.83
2024-05-09T09:00:55.161Z,80.24
2024-05-09T09:01:55.062Z,80.30
2024-05-09T09:02:55.026Z,78.57
2024-05-09T09:03:55.255Z,78.17
2024-05-09T09:04:55.055Z,78.57
2024-05-09T09:05:54.938Z,78.57
2024-05-09T09:06:57.693Z,78.78
2024-05-09T09:07:54.920Z,78.37
2024-05-09T09:08:54.925Z,78.53
2024-05-09T09:09:54.935Z,78.64
2024-05-09T09:10:54.976Z,78.60
2024-05-09T09:11:54.893Z,78.91
2024-05-09T09:12:54.919Z,78.09
2024-05-09T09:13:54.870Z,77.48
2024-05-09T09:14:54.858Z,77.69
2024-05-09T09:15:54.889Z,76.87
2024-05-09T09:16:54.804Z,75.56
2024-05-09T09:17:54.838Z,76.37
2024-05-09T09:18:55.080Z,77.34
2024-05-09T09:19:54.873Z,77.34
2024-05-09T09:20:54.827Z,78.16
2024-05-09T09:21:54.856Z,79.17
2024-05-09T09:22:54.734Z,78.06
2024-05-09T09:23:54.727Z,78.83
2024-05-09T09:24:54.737Z,78.73
2024-05-09T09:25:54.740Z,78.42
2024-05-09T09:26:54.801Z,78.83
2024-05-09T09:27:54.809Z,78.53
2024-05-09T09:28:54.643Z,76.40
2024-05-09T09:29:54.626Z,75.96
2024-05-09T09:30:54.712Z,76.67
2024-05-09T09:31:54.597Z,76.97
2024-05-09T09:32:54.708Z,76.46
2024-05-09T09:33:54.797Z,76.67
2024-05-09T09:34:54.641Z,76.77
2024-05-09T09:35:54.549Z,76.67
2024-05-09T09:36:54.604Z,76.06
2024-05-09T09:37:54.527Z,75.92
2024-05-09T09:38:54.508Z,76.03
2024-05-09T09:39:54.551Z,73.19
2024-05-09T09:40:54.557Z,72.68
2024-05-09T09:41:54.489Z,73.49
2024-05-09T09:42:54.541Z,74.47
2024-05-09T09:43:54.457Z,75.48
2024-05-09T09:45:02.200Z,75.79
2024-05-09T09:45:54.429Z,75.68
2024-05-09T09:46:54.468Z,74.07
2024-05-09T09:47:54.514Z,74.77
2024-05-09T09:48:54.489Z,75.24
2024-05-09T09:49:54.454Z,74.84
2024-05-09T09:50:54.349Z,74.33
2024-05-09T09:51:54.384Z,75.95
2024-05-09T09:52:54.357Z,75.81
2024-05-09T09:53:54.312Z,73.99
2024-05-09T09:54:54.414Z,72.17
2024-05-09T09:55:54.302Z,72.48
2024-05-09T09:56:54.313Z,71.06
2024-05-09T09:57:54.315Z,69.65
2024-05-09T09:58:54.242Z,69.95
2024-05-09T09:59:54.240Z,71.13
2024-05-09T10:00:54.456Z,70.02
2024-05-09T10:01:54.295Z,70.73
2024-05-09T10:02:54.285Z,70.73
2024-05-09T10:03:54.327Z,71.80
2024-05-09T10:04:54.298Z,72.21
2024-05-09T10:05:54.205Z,70.29
2024-05-09T10:06:54.224Z,69.68
2024-05-09T10:07:54.139Z,68.07
2024-05-09T10:08:54.115Z,66.45
2024-05-09T10:09:54.180Z,67.16
2024-05-09T10:10:54.297Z,67.06
2024-05-09T10:11:59.764Z,65.75
2024-05-09T10:12:54.164Z,64.03
2024-05-09T10:13:54.060Z,64.84
2024-05-09T10:14:54.024Z,64.33
2024-05-09T10:15:54.611Z,62.71
2024-05-09T10:16:54.071Z,64.70
2024-05-09T10:17:54.088Z,62.59
2024-05-09T10:18:54.144Z,62.18
2024-05-09T10:19:54.153Z,64.30
2024-05-09T10:20:53.943Z,64.10
2024-05-09T10:21:53.978Z,60.94
2024-05-09T10:22:53.919Z,60.03
2024-05-09T10:23:53.929Z,61.11
2024-05-09T10:24:54.048Z,60.71
2024-05-09T10:25:53.887Z,62.73
2024-05-09T10:26:53.888Z,61.32
2024-05-09T10:27:53.994Z,60.71
2024-05-09T10:28:53.853Z,58.59
2024-05-09T10:29:53.823Z,58.76
2024-05-09T10:30:53.930Z,59.47
2024-05-09T10:31:53.876Z,60.78
2024-05-09T10:32:53.924Z,60.08
2024-05-09T10:33:53.975Z,58.26
2024-05-09T10:34:53.838Z,57.35
2024-05-09T10:35:53.746Z,60.17
2024-05-09T10:36:53.921Z,62.09
2024-05-09T10:37:53.736Z,61.79
2024-05-09T10:38:53.718Z,58.67
2024-05-09T10:39:53.736Z,55.54
2024-05-09T10:40:53.724Z,55.44
2024-05-09T10:41:53.673Z,55.84
2024-05-09T10:42:53.700Z,57.25
2024-05-09T10:43:53.632Z,57.86
2024-05-09T10:44:53.656Z,59.27
2024-05-09T10:45:53.676Z,59.67
2024-05-09T10:46:53.626Z,60.17
2024-05-09T10:47:53.757Z,59.24
2024-05-09T10:48:53.736Z,57.53
2024-05-09T10:49:53.684Z,57.23
2024-05-09T10:50:53.593Z,57.53
2024-05-09T10:51:53.667Z,56.12
2024-05-09T10:52:53.558Z,54.71
2024-05-09T10:53:53.535Z,55.49
2024-05-09T10:54:53.564Z,54.58
2024-05-09T10:55:53.477Z,54.48
2024-05-09T10:56:53.472Z,54.88
2024-05-09T10:57:53.674Z,53.27
2024-05-09T10:58:53.433Z,54.08
2024-05-09T10:59:53.467Z,54.58
2024-05-09T11:00:53.526Z,55.56
2024-05-09T11:01:53.425Z,55.66
2024-05-09T11:02:53.402Z,53.25
2024-05-09T11:03:53.646Z,53.95
2024-05-09T11:04:53.488Z,53.65
2024-05-09T11:05:53.459Z,55.76
2024-05-09T11:06:53.351Z,54.75
2024-05-09T11:07:53.336Z,54.46
2024-05-09T11:08:53.308Z,54.53
2024-05-09T11:09:53.341Z,56.54
2024-05-09T11:10:53.550Z,55.63
2024-05-09T11:11:53.314Z,53.20
2024-05-09T11:12:53.301Z,53.00
2024-05-09T11:13:53.255Z,54.91
2024-05-09T11:14:53.216Z,56.62
2024-05-09T11:15:53.232Z,55.00
2024-05-09T11:16:53.228Z,54.78
2024-05-09T11:17:53.339Z,54.38
2024-05-09T11:18:53.320Z,53.88
2024-05-09T11:19:53.189Z,53.17
2024-05-09T11:20:53.175Z,51.97
2024-05-09T11:21:53.219Z,52.37
2024-05-09T11:22:53.135Z,52.57
2024-05-09T11:23:53.269Z,50.56
2024-05-09T11:24:53.294Z,50.76
2024-05-09T11:25:53.090Z,53.37
2024-05-09T11:26:53.063Z,53.88
2024-05-09T11:27:53.135Z,53.37
2024-05-09T11:28:53.050Z,53.55
2024-05-09T11:29:53.024Z,52.84
2024-05-09T11:30:53.012Z,53.05
2024-05-09T11:31:53.187Z,52.34
2024-05-09T11:32:53.193Z,53.95
2024-05-09T11:33:53.198Z,55.35
2024-05-09T11:34:52.954Z,56.86
2024-05-09T11:35:52.941Z,54.33
2024-05-09T11:36:52.979Z,53.72
2024-05-09T11:37:52.914Z,53.62
2024-05-09T11:38:52.913Z,53.02
2024-05-09T11:39:52.922Z,52.92
2024-05-09T11:40:52.918Z,52.22
2024-05-09T11:41:52.879Z,51.92
2024-05-09T11:42:53.585Z,52.82
2024-05-09T11:43:52.848Z,53.82
2024-05-09T11:44:52.836Z,50.81
2024-05-09T11:45:52.853Z,51.61
2024-05-09T11:46:52.795Z,49.91
2024-05-09T11:47:52.874Z,49.40
2024-05-09T11:48:52.894Z,52.82
2024-05-09T11:49:52.851Z,53.52
2024-05-09T11:50:52.743Z,53.42
2024-05-09T11:51:52.750Z,53.50
2024-05-09T11:52:52.718Z,53.80
2024-05-09T11:53:52.719Z,53.90
2024-05-09T11:54:52.735Z,52.19
2024-05-09T11:55:52.721Z,51.79
2024-05-09T11:56:52.659Z,52.09
2024-05-09T11:57:52.686Z,53.00
2024-05-09T11:58:52.641Z,52.39
2024-05-09T11:59:52.635Z,53.20
2024-05-09T12:00:52.748Z,49.78
2024-05-09T12:01:52.745Z,49.58
2024-05-09T12:02:52.694Z,50.68
2024-05-09T12:03:52.754Z,51.39
2024-05-09T12:04:52.657Z,50.89
2024-05-09T12:05:52.580Z,51.17
2024-05-09T12:06:52.554Z,50.66
2024-05-09T12:07:52.521Z,50.56
2024-05-09T12:08:52.508Z,51.56
2024-05-09T12:09:52.563Z,51.26
2024-05-09T12:10:52.777Z,47.15
2024-05-09T12:11:52.510Z,47.35
2024-05-09T12:12:52.525Z,47.47
2024-05-09T12:13:52.478Z,49.88
2024-05-09T12:14:52.427Z,50.79
2024-05-09T12:15:52.486Z,51.97
2024-05-09T12:16:52.468Z,51.06
2024-05-09T12:17:52.456Z,52.17
2024-05-09T12:18:52.539Z,52.67
2024-05-09T12:19:52.370Z,52.84
2024-05-09T12:20:52.368Z,53.34
2024-05-09T12:21:52.361Z,52.84
2024-05-09T12:22:52.330Z,51.12
2024-05-09T12:23:52.314Z,48.81
2024-05-09T12:24:52.346Z,50.01
2024-05-09T12:25:52.288Z,51.82
2024-05-09T12:26:52.262Z,51.01
2024-05-09T12:27:52.312Z,52.22
2024-05-09T12:28:52.255Z,51.39
2024-05-09T12:29:52.250Z,51.19
2024-05-09T12:30:52.246Z,50.19
2024-05-09T12:31:52.230Z,53.09
2024-05-09T12:32:52.234Z,50.29
2024-05-09T12:33:52.244Z,50.19
2024-05-09T12:34:52.157Z,50.79
2024-05-09T12:35:52.204Z,46.28
2024-05-09T12:36:52.154Z,47.69
2024-05-09T12:37:52.132Z,48.49
2024-05-09T12:38:52.104Z,46.38
2024-05-09T12:39:52.127Z,48.19
2024-05-09T12:40:52.359Z,49.39
2024-05-09T12:41:52.078Z,49.08
2024-05-09T12:42:52.121Z,49.29
2024-05-09T12:43:52.071Z,48.58
2024-05-09T12:44:52.058Z,51.29
2024-05-09T12:45:52.116Z,51.69
2024-05-09T12:46:52.047Z,51.59
2024-05-09T12:47:52.121Z,50.49
2024-05-09T12:48:52.271Z,49.19
2024-05-09T12:49:52.054Z,49.91
2024-05-09T12:50:52.003Z,50.42
2024-05-09T12:51:51.985Z,49.41
2024-05-09T12:52:51.982Z,49.21
2024-05-09T12:53:51.946Z,49.41
2024-05-09T12:54:52.035Z,49.31
2024-05-09T12:55:56.927Z,49.21